sensor_id;sensor_type;location;lat;lon;timestamp;pressure;altitude;pressure_sealevel;temperature;humidity
6132;BME280;3097;42.692;23.278;2022-09-02T00:02:11;94675.50;;;22.10;83.72
6132;BME280;3097;42.692;23.278;2022-09-02T00:04:37;94690.63;;;22.13;84.79
6132;BME280;3097;42.692;23.278;2022-09-02T00:07:03;94688.19;;;22.17;84.64
6132;BME280;3097;42.692;23.278;2022-09-02T00:09:29;94667.22;;;22.03;84.78
6132;BME280;3097;42.692;23.278;2022-09-02T00:11:55;94689.44;;;22.19;84.61
6132;BME280;3097;42.692;23.278;2022-09-02T00:14:28;94688.06;;;22.22;84.95
6132;BME280;3097;42.692;23.278;2022-09-02T00:16:54;94691.19;;;22.24;85.12
6132;BME280;3097;42.692;23.278;2022-09-02T00:19:23;94692.25;;;22.23;84.69
6132;BME280;3097;42.692;23.278;2022-09-02T00:21:50;94697.38;;;22.28;84.38
6132;BME280;3097;42.692;23.278;2022-09-02T00:24:16;94679.19;;;22.09;84.31
6132;BME280;3097;42.692;23.278;2022-09-02T00:26:42;94703.81;;;22.22;84.69
6132;BME280;3097;42.692;23.278;2022-09-02T00:29:09;94708.31;;;22.21;84.67
6132;BME280;3097;42.692;23.278;2022-09-02T00:31:35;94715.28;;;22.26;84.16
6132;BME280;3097;42.692;23.278;2022-09-02T00:34:02;94720.06;;;22.24;84.37
6132;BME280;3097;42.692;23.278;2022-09-02T00:36:28;94719.28;;;22.23;83.63
6132;BME280;3097;42.692;23.278;2022-09-02T00:38:54;94702.09;;;22.17;82.74
6132;BME280;3097;42.692;23.278;2022-09-02T00:41:22;94711.22;;;22.20;83.19
6132;BME280;3097;42.692;23.278;2022-09-02T00:44:10;94708.00;;;22.23;83.21
6132;BME280;3097;42.692;23.278;2022-09-02T00:46:36;94713.75;;;22.25;83.17
6132;BME280;3097;42.692;23.278;2022-09-02T00:49:21;94706.75;;;22.20;83.15
6132;BME280;3097;42.692;23.278;2022-09-02T00:51:58;94709.66;;;22.19;82.81
6132;BME280;3097;42.692;23.278;2022-09-02T00:54:27;94709.50;;;22.15;82.83
6132;BME280;3097;42.692;23.278;2022-09-02T00:56:54;94711.34;;;22.15;82.63
6132;BME280;3097;42.692;23.278;2022-09-02T00:59:53;94713.47;;;22.13;82.87
6132;BME280;3097;42.692;23.278;2022-09-02T01:02:16;94723.69;;;22.14;83.36
6132;BME280;3097;42.692;23.278;2022-09-02T01:04:41;94668.19;;;21.71;83.21
6132;BME280;3097;42.692;23.278;2022-09-02T01:07:11;94729.53;;;22.11;83.59
6132;BME280;3097;42.692;23.278;2022-09-02T01:09:37;94740.81;;;22.12;84.04
6132;BME280;3097;42.692;23.278;2022-09-02T01:12:03;94745.28;;;22.11;83.73
6132;BME280;3097;42.692;23.278;2022-09-02T01:14:29;94741.50;;;22.04;84.10
6132;BME280;3097;42.692;23.278;2022-09-02T01:16:57;94738.31;;;22.07;84.19
6132;BME280;3097;42.692;23.278;2022-09-02T01:19:27;94727.59;;;22.03;83.76
6132;BME280;3097;42.692;23.278;2022-09-02T01:21:55;94717.41;;;21.88;83.84
6132;BME280;3097;42.692;23.278;2022-09-02T01:24:29;94732.19;;;21.97;84.22
6132;BME280;3097;42.692;23.278;2022-09-02T01:26:57;94739.28;;;21.97;84.58
6132;BME280;3097;42.692;23.278;2022-09-02T01:29:25;94735.31;;;21.99;84.45
6132;BME280;3097;42.692;23.278;2022-09-02T01:31:50;94727.16;;;22.01;84.89
6132;BME280;3097;42.692;23.278;2022-09-02T01:34:17;94740.44;;;22.05;85.23
6132;BME280;3097;42.692;23.278;2022-09-02T01:36:43;94713.44;;;21.90;85.80
6132;BME280;3097;42.692;23.278;2022-09-02T01:39:09;94736.94;;;22.09;86.13
6132;BME280;3097;42.692;23.278;2022-09-02T01:41:35;94729.00;;;22.00;86.42
6132;BME280;3097;42.692;23.278;2022-09-02T01:44:01;94718.97;;;21.89;87.07
6132;BME280;3097;42.692;23.278;2022-09-02T01:46:27;94710.63;;;21.73;87.27
6132;BME280;3097;42.692;23.278;2022-09-02T01:48:52;94695.22;;;21.58;87.10
6132;BME280;3097;42.692;23.278;2022-09-02T01:51:19;94697.00;;;21.49;87.56
6132;BME280;3097;42.692;23.278;2022-09-02T01:53:46;94687.75;;;21.38;88.62
6132;BME280;3097;42.692;23.278;2022-09-02T01:56:12;94678.94;;;21.34;90.15
6132;BME280;3097;42.692;23.278;2022-09-02T01:58:38;94676.41;;;21.29;90.79
6132;BME280;3097;42.692;23.278;2022-09-02T02:01:03;94670.00;;;21.21;91.04
6132;BME280;3097;42.692;23.278;2022-09-02T02:03:29;94657.94;;;21.06;91.06
6132;BME280;3097;42.692;23.278;2022-09-02T02:05:54;94663.56;;;21.00;90.84
6132;BME280;3097;42.692;23.278;2022-09-02T02:08:20;94664.25;;;20.92;88.41
6132;BME280;3097;42.692;23.278;2022-09-02T02:10:46;94645.72;;;20.74;86.95
6132;BME280;3097;42.692;23.278;2022-09-02T02:13:12;94651.25;;;20.73;88.93
6132;BME280;3097;42.692;23.278;2022-09-02T02:15:40;94605.69;;;20.41;88.15
6132;BME280;3097;42.692;23.278;2022-09-02T02:18:06;94643.38;;;20.59;89.31
6132;BME280;3097;42.692;23.278;2022-09-02T02:20:33;94638.91;;;20.60;90.42
6132;BME280;3097;42.692;23.278;2022-09-02T02:22:58;94624.25;;;20.59;88.39
6132;BME280;3097;42.692;23.278;2022-09-02T02:25:24;94598.00;;;20.31;88.43
6132;BME280;3097;42.692;23.278;2022-09-02T02:27:49;94630.06;;;20.42;88.66
6132;BME280;3097;42.692;23.278;2022-09-02T02:30:16;94641.41;;;20.51;89.54
6132;BME280;3097;42.692;23.278;2022-09-02T02:32:43;94655.56;;;20.50;90.40
6132;BME280;3097;42.692;23.278;2022-09-02T02:35:08;94655.75;;;20.54;90.70
6132;BME280;3097;42.692;23.278;2022-09-02T02:37:36;94665.19;;;20.55;91.18
6132;BME280;3097;42.692;23.278;2022-09-02T02:40:03;94664.50;;;20.63;91.00
6132;BME280;3097;42.692;23.278;2022-09-02T02:42:29;94673.81;;;20.69;91.30
6132;BME280;3097;42.692;23.278;2022-09-02T02:44:54;94679.06;;;20.69;91.54
6132;BME280;3097;42.692;23.278;2022-09-02T02:47:20;94645.50;;;20.57;93.06
6132;BME280;3097;42.692;23.278;2022-09-02T02:49:46;94671.53;;;20.81;93.25
6132;BME280;3097;42.692;23.278;2022-09-02T02:52:12;94677.94;;;20.75;91.69
6132;BME280;3097;42.692;23.278;2022-09-02T02:54:39;94673.09;;;20.82;92.54
6132;BME280;3097;42.692;23.278;2022-09-02T02:57:05;94676.66;;;20.86;93.66
6132;BME280;3097;42.692;23.278;2022-09-02T02:59:31;94668.03;;;20.85;93.83
6132;BME280;3097;42.692;23.278;2022-09-02T03:01:57;94680.75;;;20.78;93.69
6132;BME280;3097;42.692;23.278;2022-09-02T03:04:22;94683.06;;;20.80;94.12
6132;BME280;3097;42.692;23.278;2022-09-02T03:06:48;94672.00;;;20.83;94.72
6132;BME280;3097;42.692;23.278;2022-09-02T03:09:15;94666.28;;;20.81;94.97
6132;BME280;3097;42.692;23.278;2022-09-02T03:11:41;94677.22;;;20.69;94.50
6132;BME280;3097;42.692;23.278;2022-09-02T03:14:06;94644.91;;;20.60;95.09
6132;BME280;3097;42.692;23.278;2022-09-02T03:16:34;94680.06;;;20.73;96.14
6132;BME280;3097;42.692;23.278;2022-09-02T03:19:00;94680.44;;;20.80;96.03
6132;BME280;3097;42.692;23.278;2022-09-02T03:21:26;94647.63;;;20.55;96.36
6132;BME280;3097;42.692;23.278;2022-09-02T03:23:51;94665.41;;;20.72;96.60
6132;BME280;3097;42.692;23.278;2022-09-02T03:26:19;94670.25;;;20.78;96.48
6132;BME280;3097;42.692;23.278;2022-09-02T03:28:45;94674.63;;;20.83;96.50
6132;BME280;3097;42.692;23.278;2022-09-02T03:31:18;94675.78;;;20.77;97.12
6132;BME280;3097;42.692;23.278;2022-09-02T03:33:43;94668.91;;;20.67;97.75
6132;BME280;3097;42.692;23.278;2022-09-02T03:36:39;94682.19;;;20.71;98.25
6132;BME280;3097;42.692;23.278;2022-09-02T03:39:05;94690.31;;;20.69;98.35
6132;BME280;3097;42.692;23.278;2022-09-02T03:41:30;94684.13;;;20.65;98.85
6132;BME280;3097;42.692;23.278;2022-09-02T03:43:56;94692.75;;;20.66;98.66
6132;BME280;3097;42.692;23.278;2022-09-02T03:46:22;94687.41;;;20.57;98.93
6132;BME280;3097;42.692;23.278;2022-09-02T03:48:48;94700.63;;;20.66;98.77
6132;BME280;3097;42.692;23.278;2022-09-02T03:51:20;94700.69;;;20.61;99.55
6132;BME280;3097;42.692;23.278;2022-09-02T03:53:46;94704.28;;;20.65;99.71
6132;BME280;3097;42.692;23.278;2022-09-02T03:56:13;94706.03;;;20.69;99.19
6132;BME280;3097;42.692;23.278;2022-09-02T03:58:42;94718.84;;;20.71;99.06
6132;BME280;3097;42.692;23.278;2022-09-02T04:01:11;94717.41;;;20.65;98.34
6132;BME280;3097;42.692;23.278;2022-09-02T04:03:37;94719.50;;;20.63;97.81
6132;BME280;3097;42.692;23.278;2022-09-02T04:06:02;94718.06;;;20.57;97.90
6132;BME280;3097;42.692;23.278;2022-09-02T04:08:28;94716.13;;;20.62;97.91
6132;BME280;3097;42.692;23.278;2022-09-02T04:10:53;94728.16;;;20.63;99.18
6132;BME280;3097;42.692;23.278;2022-09-02T04:13:20;94702.09;;;20.39;99.67
6132;BME280;3097;42.692;23.278;2022-09-02T04:15:45;94740.56;;;20.58;100.00
6132;BME280;3097;42.692;23.278;2022-09-02T04:18:15;94741.16;;;20.68;100.00
6132;BME280;3097;42.692;23.278;2022-09-02T04:20:41;94738.84;;;20.67;100.00
6132;BME280;3097;42.692;23.278;2022-09-02T04:23:07;94735.63;;;20.70;100.00
6132;BME280;3097;42.692;23.278;2022-09-02T04:25:33;94738.75;;;20.72;99.96
6132;BME280;3097;42.692;23.278;2022-09-02T04:27:59;94745.84;;;20.71;100.00
6132;BME280;3097;42.692;23.278;2022-09-02T04:30:24;94724.84;;;20.58;100.00
6132;BME280;3097;42.692;23.278;2022-09-02T04:32:51;94744.56;;;20.69;100.00
6132;BME280;3097;42.692;23.278;2022-09-02T04:35:17;94736.88;;;20.59;100.00
6132;BME280;3097;42.692;23.278;2022-09-02T04:37:42;94749.13;;;20.77;100.00
6132;BME280;3097;42.692;23.278;2022-09-02T04:40:09;94735.03;;;20.59;100.00
6132;BME280;3097;42.692;23.278;2022-09-02T04:42:34;94755.53;;;20.71;100.00
6132;BME280;3097;42.692;23.278;2022-09-02T04:45:00;94756.03;;;20.73;100.00
6132;BME280;3097;42.692;23.278;2022-09-02T04:47:26;94754.84;;;20.65;100.00
6132;BME280;3097;42.692;23.278;2022-09-02T04:49:52;94755.13;;;20.64;100.00
6132;BME280;3097;42.692;23.278;2022-09-02T04:52:18;94765.03;;;20.67;100.00
6132;BME280;3097;42.692;23.278;2022-09-02T04:54:45;94759.72;;;20.72;100.00
6132;BME280;3097;42.692;23.278;2022-09-02T04:57:10;94766.56;;;20.68;100.00
6132;BME280;3097;42.692;23.278;2022-09-02T04:59:36;94762.34;;;20.72;100.00
6132;BME280;3097;42.692;23.278;2022-09-02T05:02:02;94759.31;;;20.65;100.00
6132;BME280;3097;42.692;23.278;2022-09-02T05:04:28;94753.38;;;20.59;100.00
6132;BME280;3097;42.692;23.278;2022-09-02T05:06:56;94765.16;;;20.75;100.00
6132;BME280;3097;42.692;23.278;2022-09-02T05:09:26;94762.84;;;20.74;100.00
6132;BME280;3097;42.692;23.278;2022-09-02T05:11:52;94768.66;;;20.84;100.00
6132;BME280;3097;42.692;23.278;2022-09-02T05:14:22;94770.72;;;20.88;100.00
6132;BME280;3097;42.692;23.278;2022-09-02T05:16:48;94767.31;;;20.87;100.00
6132;BME280;3097;42.692;23.278;2022-09-02T05:19:19;94769.66;;;20.89;100.00
6132;BME280;3097;42.692;23.278;2022-09-02T05:21:46;94774.53;;;20.95;100.00
6132;BME280;3097;42.692;23.278;2022-09-02T05:24:11;94771.31;;;20.98;100.00
6132;BME280;3097;42.692;23.278;2022-09-02T05:26:37;94772.59;;;21.01;100.00
6132;BME280;3097;42.692;23.278;2022-09-02T05:29:03;94767.44;;;20.96;100.00
6132;BME280;3097;42.692;23.278;2022-09-02T05:31:32;94776.19;;;21.05;100.00
6132;BME280;3097;42.692;23.278;2022-09-02T05:33:58;94781.53;;;21.13;100.00
6132;BME280;3097;42.692;23.278;2022-09-02T05:36:24;94775.81;;;21.11;100.00
6132;BME280;3097;42.692;23.278;2022-09-02T05:38:49;94695.16;;;20.62;99.94
6132;BME280;3097;42.692;23.278;2022-09-02T05:41:22;94759.31;;;21.11;99.75
6132;BME280;3097;42.692;23.278;2022-09-02T05:43:58;94763.03;;;21.23;99.69
6132;BME280;3097;42.692;23.278;2022-09-02T05:46:26;94764.50;;;21.30;99.66
6132;BME280;3097;42.692;23.278;2022-09-02T05:48:53;94766.53;;;21.33;98.48
6132;BME280;3097;42.692;23.278;2022-09-02T05:51:43;94759.25;;;21.30;98.89
6132;BME280;3097;42.692;23.278;2022-09-02T05:54:13;94754.22;;;21.33;98.27
6132;BME280;3097;42.692;23.278;2022-09-02T05:56:41;94757.63;;;21.34;98.37
6132;BME280;3097;42.692;23.278;2022-09-02T05:59:07;94696.59;;;21.01;98.72
6132;BME280;3097;42.692;23.278;2022-09-02T06:01:34;94757.13;;;21.45;99.01
6132;BME280;3097;42.692;23.278;2022-09-02T06:04:01;94737.81;;;21.41;98.47
6132;BME280;3097;42.692;23.278;2022-09-02T06:06:30;94736.34;;;21.49;98.20
6132;BME280;3097;42.692;23.278;2022-09-02T06:08:56;94740.91;;;21.57;97.68
6132;BME280;3097;42.692;23.278;2022-09-02T06:11:23;94743.31;;;21.67;96.85
6132;BME280;3097;42.692;23.278;2022-09-02T06:13:49;94753.41;;;21.74;96.60
6132;BME280;3097;42.692;23.278;2022-09-02T06:16:19;94754.25;;;21.83;95.59
6132;BME280;3097;42.692;23.278;2022-09-02T06:18:45;94733.47;;;21.73;94.17
6132;BME280;3097;42.692;23.278;2022-09-02T06:21:11;94691.25;;;21.47;95.23
6132;BME280;3097;42.692;23.278;2022-09-02T06:23:39;94768.06;;;21.88;95.92
6132;BME280;3097;42.692;23.278;2022-09-02T06:26:07;94768.06;;;21.88;92.87
6132;BME280;3097;42.692;23.278;2022-09-02T06:28:33;94775.47;;;21.86;92.19
6132;BME280;3097;42.692;23.278;2022-09-02T06:31:05;94777.31;;;21.86;91.10
6132;BME280;3097;42.692;23.278;2022-09-02T06:33:31;94752.63;;;21.73;91.87
6132;BME280;3097;42.692;23.278;2022-09-02T06:35:56;94775.47;;;21.86;89.19
6132;BME280;3097;42.692;23.278;2022-09-02T06:38:22;94778.41;;;21.71;89.86
6132;BME280;3097;42.692;23.278;2022-09-02T06:40:51;94776.34;;;21.68;90.32
6132;BME280;3097;42.692;23.278;2022-09-02T06:43:17;94780.25;;;21.71;90.60
6132;BME280;3097;42.692;23.278;2022-09-02T06:45:43;94785.19;;;21.72;89.80
6132;BME280;3097;42.692;23.278;2022-09-02T06:48:09;94784.22;;;21.54;90.94
6132;BME280;3097;42.692;23.278;2022-09-02T06:50:43;94785.78;;;21.42;91.65
6132;BME280;3097;42.692;23.278;2022-09-02T06:53:08;94787.31;;;21.43;91.25
6132;BME280;3097;42.692;23.278;2022-09-02T06:55:38;94784.22;;;21.41;92.50
6132;BME280;3097;42.692;23.278;2022-09-02T06:58:04;94793.94;;;21.54;90.83
6132;BME280;3097;42.692;23.278;2022-09-02T07:00:30;94792.59;;;21.56;90.46
6132;BME280;3097;42.692;23.278;2022-09-02T07:02:57;94795.59;;;21.50;91.05
6132;BME280;3097;42.692;23.278;2022-09-02T07:05:41;94793.94;;;21.40;91.58
6132;BME280;3097;42.692;23.278;2022-09-02T07:08:07;94707.63;;;20.84;91.82
6132;BME280;3097;42.692;23.278;2022-09-02T07:10:36;94801.41;;;21.47;91.93
6132;BME280;3097;42.692;23.278;2022-09-02T07:13:02;94805.59;;;21.48;91.73
6132;BME280;3097;42.692;23.278;2022-09-02T07:15:29;94801.31;;;21.52;90.75
6132;BME280;3097;42.692;23.278;2022-09-02T07:17:54;94799.88;;;21.46;90.21
6132;BME280;3097;42.692;23.278;2022-09-02T07:20:20;94802.47;;;21.46;90.56
6132;BME280;3097;42.692;23.278;2022-09-02T07:22:46;94785.47;;;21.30;90.90
6132;BME280;3097;42.692;23.278;2022-09-02T07:25:11;94778.59;;;21.34;91.39
6132;BME280;3097;42.692;23.278;2022-09-02T07:27:37;94814.06;;;21.72;91.24
6132;BME280;3097;42.692;23.278;2022-09-02T07:30:04;94810.81;;;21.89;90.42
6132;BME280;3097;42.692;23.278;2022-09-02T07:32:31;94808.69;;;22.05;88.40
6132;BME280;3097;42.692;23.278;2022-09-02T07:34:56;94805.78;;;21.92;88.33
6132;BME280;3097;42.692;23.278;2022-09-02T07:37:22;94803.84;;;21.84;89.13
6132;BME280;3097;42.692;23.278;2022-09-02T07:39:47;94805.41;;;21.85;90.78
6132;BME280;3097;42.692;23.278;2022-09-02T07:42:14;94805.13;;;22.00;89.55
6132;BME280;3097;42.692;23.278;2022-09-02T07:44:39;94805.63;;;22.03;88.30
6132;BME280;3097;42.692;23.278;2022-09-02T07:47:05;94803.84;;;21.98;87.93
6132;BME280;3097;42.692;23.278;2022-09-02T07:49:31;94805.00;;;22.06;88.29
6132;BME280;3097;42.692;23.278;2022-09-02T07:51:56;94803.13;;;22.20;88.36
6132;BME280;3097;42.692;23.278;2022-09-02T07:54:24;94803.41;;;22.32;86.48
6132;BME280;3097;42.692;23.278;2022-09-02T07:56:51;94808.91;;;22.44;86.55
6132;BME280;3097;42.692;23.278;2022-09-02T07:59:17;94809.75;;;22.53;85.62
6132;BME280;3097;42.692;23.278;2022-09-02T08:01:44;94813.53;;;22.61;84.75
6132;BME280;3097;42.692;23.278;2022-09-02T08:04:10;94818.94;;;22.64;83.88
6132;BME280;3097;42.692;23.278;2022-09-02T08:06:37;94820.38;;;22.70;83.60
6132;BME280;3097;42.692;23.278;2022-09-02T08:09:04;94830.34;;;22.73;84.57
6132;BME280;3097;42.692;23.278;2022-09-02T08:11:31;94827.13;;;22.76;85.16
6132;BME280;3097;42.692;23.278;2022-09-02T08:13:59;94786.75;;;22.59;84.09
6132;BME280;3097;42.692;23.278;2022-09-02T08:16:24;94820.72;;;22.91;82.26
6132;BME280;3097;42.692;23.278;2022-09-02T08:18:50;94827.22;;;22.94;82.47
6132;BME280;3097;42.692;23.278;2022-09-02T08:21:15;94830.34;;;22.96;83.54
6132;BME280;3097;42.692;23.278;2022-09-02T08:23:43;94828.69;;;23.00;82.15
6132;BME280;3097;42.692;23.278;2022-09-02T08:26:13;94828.53;;;23.05;82.82
6132;BME280;3097;42.692;23.278;2022-09-02T08:28:38;94825.91;;;23.05;81.04
6132;BME280;3097;42.692;23.278;2022-09-02T08:31:06;94829.81;;;23.07;80.87
6132;BME280;3097;42.692;23.278;2022-09-02T08:33:32;94831.53;;;23.12;80.86
6132;BME280;3097;42.692;23.278;2022-09-02T08:36:03;94832.59;;;22.89;80.44
6132;BME280;3097;42.692;23.278;2022-09-02T08:38:29;94831.84;;;22.88;80.19
6132;BME280;3097;42.692;23.278;2022-09-02T08:40:54;94797.63;;;22.66;81.38
6132;BME280;3097;42.692;23.278;2022-09-02T08:43:38;94832.59;;;22.89;80.96
6132;BME280;3097;42.692;23.278;2022-09-02T08:46:06;94824.59;;;22.94;81.39
6132;BME280;3097;42.692;23.278;2022-09-02T08:48:57;94822.44;;;22.96;81.25
6132;BME280;3097;42.692;23.278;2022-09-02T08:51:51;94824.06;;;23.05;81.96
6132;BME280;3097;42.692;23.278;2022-09-02T08:54:27;94817.09;;;23.09;81.34
6132;BME280;3097;42.692;23.278;2022-09-02T08:56:56;94814.25;;;23.20;81.67
6132;BME280;3097;42.692;23.278;2022-09-02T08:59:24;94810.41;;;23.26;81.97
6132;BME280;3097;42.692;23.278;2022-09-02T09:02:11;94814.94;;;23.34;80.79
6132;BME280;3097;42.692;23.278;2022-09-02T09:05:07;94808.59;;;23.35;78.96
6132;BME280;3097;42.692;23.278;2022-09-02T09:17:57;94805.03;;;23.08;80.25
6132;BME280;3097;42.692;23.278;2022-09-02T09:20:26;94809.28;;;23.18;80.67
6132;BME280;3097;42.692;23.278;2022-09-02T09:22:55;94781.41;;;23.17;81.33
6132;BME280;3097;42.692;23.278;2022-09-02T09:25:21;94804.59;;;23.46;80.97
6132;BME280;3097;42.692;23.278;2022-09-02T09:27:55;94805.53;;;23.41;77.66
6132;BME280;3097;42.692;23.278;2022-09-02T09:30:21;94803.81;;;23.37;78.40
6132;BME280;3097;42.692;23.278;2022-09-02T09:32:58;94797.03;;;23.44;77.91
6132;BME280;3097;42.692;23.278;2022-09-02T09:35:25;94800.81;;;23.52;78.49
6132;BME280;3097;42.692;23.278;2022-09-02T09:37:52;94795.91;;;23.68;79.11
6132;BME280;3097;42.692;23.278;2022-09-02T09:45:30;94792.91;;;24.17;79.14
6132;BME280;3097;42.692;23.278;2022-09-02T09:53:29;94789.56;;;24.43;76.55
6132;BME280;3097;42.692;23.278;2022-09-02T09:55:57;94803.81;;;24.33;76.41
6132;BME280;3097;42.692;23.278;2022-09-02T09:58:46;94791.72;;;24.32;77.44
6132;BME280;3097;42.692;23.278;2022-09-02T10:01:41;94791.69;;;24.23;76.80
6132;BME280;3097;42.692;23.278;2022-09-02T10:04:31;94796.03;;;24.19;75.53
6132;BME280;3097;42.692;23.278;2022-09-02T10:06:58;94791.81;;;24.10;76.46
6132;BME280;3097;42.692;23.278;2022-09-02T10:09:35;94798.94;;;24.18;77.48
6132;BME280;3097;42.692;23.278;2022-09-02T10:12:09;94789.19;;;24.18;77.41
6132;BME280;3097;42.692;23.278;2022-09-02T10:14:53;94790.16;;;24.31;77.31
6132;BME280;3097;42.692;23.278;2022-09-02T10:23:16;94789.56;;;24.43;78.08
6132;BME280;3097;42.692;23.278;2022-09-02T10:26:02;94792.03;;;24.48;77.92
6132;BME280;3097;42.692;23.278;2022-09-02T10:41:53;94790.47;;;24.64;77.18
6132;BME280;3097;42.692;23.278;2022-09-02T10:44:29;94796.66;;;24.68;75.42
6132;BME280;3097;42.692;23.278;2022-09-02T10:47:09;94791.69;;;24.75;76.19
6132;BME280;3097;42.692;23.278;2022-09-02T10:50:00;94793.53;;;24.83;74.92
6132;BME280;3097;42.692;23.278;2022-09-02T10:52:31;94791.50;;;24.89;74.83
6132;BME280;3097;42.692;23.278;2022-09-02T10:55:09;94791.09;;;24.95;76.35
6132;BME280;3097;42.692;23.278;2022-09-02T10:58:05;94784.84;;;25.00;73.78
6132;BME280;3097;42.692;23.278;2022-09-02T11:00:34;94786.88;;;25.03;73.66
6132;BME280;3097;42.692;23.278;2022-09-02T11:05:50;94760.63;;;25.06;72.27
6132;BME280;3097;42.692;23.278;2022-09-02T11:08:48;94729.97;;;24.93;72.36
6132;BME280;3097;42.692;23.278;2022-09-02T11:11:23;94769.72;;;25.26;72.74
6132;BME280;3097;42.692;23.278;2022-09-02T11:14:23;94769.84;;;25.38;71.28
6132;BME280;3097;42.692;23.278;2022-09-02T11:17:04;94771.09;;;25.41;70.34
6132;BME280;3097;42.692;23.278;2022-09-02T11:24:59;94771.66;;;25.00;69.58
6132;BME280;3097;42.692;23.278;2022-09-02T11:27:36;94762.22;;;24.90;70.77
6132;BME280;3097;42.692;23.278;2022-09-02T11:30:17;94771.69;;;24.91;71.94
6132;BME280;3097;42.692;23.278;2022-09-02T11:32:52;94769.53;;;24.93;71.23
6132;BME280;3097;42.692;23.278;2022-09-02T11:35:23;94772.91;;;25.02;70.15
6132;BME280;3097;42.692;23.278;2022-09-02T11:53:52;94726.75;;;25.26;71.43
6132;BME280;3097;42.692;23.278;2022-09-02T11:56:23;94740.94;;;25.42;69.98
6132;BME280;3097;42.692;23.278;2022-09-02T11:58:51;94745.31;;;25.38;69.29
6132;BME280;3097;42.692;23.278;2022-09-02T12:01:47;94746.88;;;25.39;70.30
6132;BME280;3097;42.692;23.278;2022-09-02T12:09:47;94742.59;;;25.55;70.44
6132;BME280;3097;42.692;23.278;2022-09-02T12:24:24;94733.25;;;25.66;67.45
6132;BME280;3097;42.692;23.278;2022-09-02T12:31:44;94721.66;;;25.79;69.06
6132;BME280;3097;42.692;23.278;2022-09-02T12:36:57;94709.06;;;26.06;67.33
6132;BME280;3097;42.692;23.278;2022-09-02T12:44:43;94707.44;;;26.13;64.78
6132;BME280;3097;42.692;23.278;2022-09-02T12:50:49;94701.75;;;26.03;66.77
6132;BME280;3097;42.692;23.278;2022-09-02T12:55:58;94699.78;;;26.00;66.54
6132;BME280;3097;42.692;23.278;2022-09-02T12:58:27;94698.44;;;25.94;65.03
6132;BME280;3097;42.692;23.278;2022-09-02T13:00:59;94703.69;;;25.73;66.42
6132;BME280;3097;42.692;23.278;2022-09-02T13:06:02;94695.19;;;25.67;67.39
6132;BME280;3097;42.692;23.278;2022-09-02T13:31:32;94698.47;;;24.88;70.56
6132;BME280;3097;42.692;23.278;2022-09-02T13:34:03;94701.84;;;24.89;69.99
6132;BME280;3097;42.692;23.278;2022-09-02T13:36:49;94695.50;;;24.81;75.92
6132;BME280;3097;42.692;23.278;2022-09-02T13:39:22;94694.47;;;24.65;79.77
6132;BME280;3097;42.692;23.278;2022-09-02T13:41:48;94703.66;;;24.42;81.87
6132;BME280;3097;42.692;23.278;2022-09-02T13:44:27;94714.03;;;24.04;85.53
6132;BME280;3097;42.692;23.278;2022-09-02T13:47:11;94707.03;;;23.65;88.77
6132;BME280;3097;42.692;23.278;2022-09-02T13:49:45;94734.13;;;23.65;91.56
6132;BME280;3097;42.692;23.278;2022-09-02T13:52:17;94697.31;;;23.34;93.05
6132;BME280;3097;42.692;23.278;2022-09-02T13:54:46;94697.09;;;23.13;92.79
6132;BME280;3097;42.692;23.278;2022-09-02T13:57:17;94721.81;;;23.04;93.20
6132;BME280;3097;42.692;23.278;2022-09-02T13:59:47;94682.63;;;22.63;91.53
6132;BME280;3097;42.692;23.278;2022-09-02T14:04:54;94710.00;;;22.70;97.19
6132;BME280;3097;42.692;23.278;2022-09-02T14:07:30;94719.75;;;22.70;100.00
6132;BME280;3097;42.692;23.278;2022-09-02T14:09:59;94712.06;;;22.51;100.00
6132;BME280;3097;42.692;23.278;2022-09-02T14:12:26;94714.03;;;22.46;99.74
6132;BME280;3097;42.692;23.278;2022-09-02T14:14:54;94731.88;;;22.57;100.00
6132;BME280;3097;42.692;23.278;2022-09-02T14:17:26;94733.84;;;22.52;100.00
6132;BME280;3097;42.692;23.278;2022-09-02T14:22:39;94752.72;;;22.31;100.00
6132;BME280;3097;42.692;23.278;2022-09-02T14:25:15;94764.66;;;22.37;100.00
6132;BME280;3097;42.692;23.278;2022-09-02T14:27:51;94729.66;;;22.28;100.00
6132;BME280;3097;42.692;23.278;2022-09-02T14:30:36;94727.31;;;22.05;100.00
6132;BME280;3097;42.692;23.278;2022-09-02T14:33:25;94760.50;;;22.00;100.00
6132;BME280;3097;42.692;23.278;2022-09-02T14:36:01;94777.22;;;21.77;100.00
6132;BME280;3097;42.692;23.278;2022-09-02T14:38:29;94787.63;;;21.55;100.00
6132;BME280;3097;42.692;23.278;2022-09-02T14:41:23;94775.00;;;21.71;100.00
6132;BME280;3097;42.692;23.278;2022-09-02T14:43:52;94768.00;;;21.80;100.00
6132;BME280;3097;42.692;23.278;2022-09-02T14:46:22;94764.59;;;21.79;100.00
6132;BME280;3097;42.692;23.278;2022-09-02T14:51:22;94774.09;;;21.89;100.00
6132;BME280;3097;42.692;23.278;2022-09-02T14:53:52;94759.13;;;21.89;100.00
6132;BME280;3097;42.692;23.278;2022-09-02T14:56:44;94778.09;;;22.00;100.00
6132;BME280;3097;42.692;23.278;2022-09-02T14:59:09;94782.81;;;22.12;100.00
6132;BME280;3097;42.692;23.278;2022-09-02T15:01:40;94789.22;;;22.19;100.00
6132;BME280;3097;42.692;23.278;2022-09-02T15:04:07;94783.88;;;22.24;100.00
6132;BME280;3097;42.692;23.278;2022-09-02T15:06:33;94786.88;;;22.18;100.00
6132;BME280;3097;42.692;23.278;2022-09-02T15:08:59;94790.19;;;22.23;100.00
6132;BME280;3097;42.692;23.278;2022-09-02T15:11:24;94792.53;;;22.25;100.00
6132;BME280;3097;42.692;23.278;2022-09-02T15:13:49;94772.31;;;22.12;100.00
6132;BME280;3097;42.692;23.278;2022-09-02T15:16:15;94781.25;;;22.11;100.00
6132;BME280;3097;42.692;23.278;2022-09-02T15:18:40;94796.03;;;22.20;100.00
6132;BME280;3097;42.692;23.278;2022-09-02T15:21:06;94799.31;;;22.26;100.00
6132;BME280;3097;42.692;23.278;2022-09-02T15:23:31;94790.78;;;22.20;100.00
6132;BME280;3097;42.692;23.278;2022-09-02T15:25:57;94788.84;;;22.12;100.00
6132;BME280;3097;42.692;23.278;2022-09-02T15:28:23;94785.38;;;22.03;100.00
6132;BME280;3097;42.692;23.278;2022-09-02T15:30:56;94795.13;;;22.03;100.00
6132;BME280;3097;42.692;23.278;2022-09-02T15:33:22;94798.31;;;21.99;100.00
6132;BME280;3097;42.692;23.278;2022-09-02T15:35:47;94797.25;;;22.00;100.00